Create Custom Reports and Graphics: Custom Report

Modesto Jr College

Current Conditions

11/28/21 5:45 PM (-08:00)
Updated Every 15 Minutes
Temp 51.0 °F   0.5
RH 83 %   7
Dew Pt 46.2 °F   1.8
Wind Spd 0.1 mph
Wind Dir NW | 316 °
Wind Gust 1.1 mph   1.3
Latest Rain 0.00 In
Daily Rain 0.00 In
Daily Min Temp 38.1 °F   0.8
Daily Max Temp 67.4 °F   2.2

Last 24 Hours

Modesto Jr College

15 Minute Data | America/Los_Angeles
as of 11/28/21 5:51 PM PST
Date & Time Temp (°F) RH (%) Dew Pt (°F) Wind Spd (mph) Wind Dir (°) Wind Gust (mph) Latest Rain (In) Daily Rain (In) Daily Min Temp (°F) Daily Max Temp (°F)
11/28/21 - 1745 51.0 83 46.2 0.1 NW | 316 1.1 0.00 0.00 38.1 67.4
11/28/21 - 1730 52.4 79 46.2 0.5 W | 273 1.5 0.00 0.00 38.1 67.4
11/28/21 - 1715 54.2 74 46.1 0.6 W | 269 1.3 0.00 0.00 38.1 67.4
11/28/21 - 1700 57.0 69 47.0 0.0 WNW | 291 0.9 0.00 0.00 38.1 67.4
11/28/21 - 1645 60.0 62 46.8 0.0 N | 0 0.0 0.00 0.00 38.1 67.4
11/28/21 - 1630 62.6 57 47.2 0.7 W | 272 2.0 0.00 0.00 38.1 67.4
11/28/21 - 1615 64.0 51 45.6 1.0 WNW | 300 2.2 0.00 0.00 38.1 67.4
11/28/21 - 1600 64.6 50 45.5 2.4 NNW | 327 5.0 0.00 0.00 38.1 67.4
11/28/21 - 1545 65.1 50 45.9 3.4 NW | 305 5.5 0.00 0.00 38.1 67.4
11/28/21 - 1530 65.5 49 45.8 3.4 WNW | 302 5.9 0.00 0.00 38.1 67.4
11/28/21 - 1515 66.3 48 45.9 3.4 WNW | 297 7.9 0.00 0.00 38.1 67.4
11/28/21 - 1500 66.6 46 45.5 3.7 WNW | 285 5.9 0.00 0.00 38.1 67.4
11/28/21 - 1445 66.4 46 45.2 3.5 NW | 306 7.9 0.00 0.00 38.1 67.4
11/28/21 - 1430 66.1 46 45.0 3.4 NW | 326 7.0 0.00 0.00 38.1 67.4
11/28/21 - 1415 66.8 45 45.0 3.4 WNW | 299 6.1 0.00 0.00 38.1 67.4
11/28/21 - 1400 66.7 46 45.4 3.3 WNW | 296 6.4 0.00 0.00 38.1 67.4
11/28/21 - 1345 65.9 48 45.8 3.4 NW | 317 7.2 0.00 0.00 38.1 66.8
11/28/21 - 1330 65.5 49 46.0 3.6 NNW | 330 7.0 0.00 0.00 38.1 66.8
11/28/21 - 1315 65.5 49 45.8 2.5 NW | 309 8.1 0.00 0.00 38.1 66.8
11/28/21 - 1300 64.9 50 45.6 3.5 NW | 315 7.2 0.00 0.00 38.1 66.7
11/28/21 - 1245 65.2 48 45.1 3.5 NW | 325 7.9 0.00 0.00 38.1 66.7
11/28/21 - 1230 64.8 48 44.8 1.6 N | 359 5.3 0.00 0.00 38.1 66.7
11/28/21 - 1215 66.1 47 45.4 2.7 SW | 225 5.5 0.00 0.00 38.1 66.7
11/28/21 - 1200 65.1 48 45.0 2.5 SW | 218 4.6 0.00 0.00 38.1 65.5
11/28/21 - 1145 64.3 50 45.3 2.4 WSW | 244 5.3 0.00 0.00 38.1 65.4
11/28/21 - 1130 63.0 51 44.5 2.3 SW | 220 4.6 0.00 0.00 38.1 63.7
11/28/21 - 1115 62.3 51 44.1 2.5 SW | 222 5.0 0.00 0.00 38.1 63.1
11/28/21 - 1100 61.4 53 44.1 2.3 SW | 227 3.9 0.00 0.00 38.1 62.1
11/28/21 - 1045 61.2 53 44.2 1.2 WSW | 239 3.9 0.00 0.00 38.1 62.1
11/28/21 - 1030 59.7 56 44.2 0.9 SW | 215 2.4 0.00 0.00 38.1 60.5
11/28/21 - 1015 59.1 59 45.0 0.8 SW | 218 2.6 0.00 0.00 38.1 59.8
11/28/21 - 1000 56.7 64 44.8 0.8 WSW | 258 2.4 0.00 0.00 38.1 58.0
11/28/21 - 0945 55.9 65 44.5 1.1 W | 270 3.3 0.00 0.00 38.1 56.8
11/28/21 - 0930 54.0 69 44.2 1.4 WSW | 254 3.3 0.00 0.00 38.1 55.2
11/28/21 - 0915 51.4 76 44.0 1.5 W | 274 3.5 0.00 0.00 38.1 52.4
11/28/21 - 0900 49.8 80 43.7 2.6 W | 261 4.2 0.00 0.00 38.1 51.0
11/28/21 - 0845 48.8 81 43.2 3.0 WSW | 252 4.4 0.00 0.00 38.1 49.7
11/28/21 - 0830 47.6 84 43.1 3.1 WSW | 245 4.4 0.00 0.00 38.1 49.7
11/28/21 - 0815 45.7 89 42.5 2.7 WSW | 248 4.2 0.00 0.00 38.1 49.7
11/28/21 - 0800 42.9 93 40.9 1.6 WSW | 256 3.1 0.00 0.00 38.1 49.7
11/28/21 - 0745 40.6 93 38.7 0.0 N | 0 0.0 0.00 0.00 38.1 49.7
11/28/21 - 0730 39.2 92 37.2 0.3 W | 279 1.5 0.00 0.00 38.1 49.7
11/28/21 - 0715 38.7 91 36.2 1.6 WSW | 253 2.2 0.00 0.00 38.1 49.7
11/28/21 - 0700 39.8 90 37.2 1.0 WSW | 250 1.8 0.00 0.00 39.2 49.7
11/28/21 - 0645 40.6 88 37.3 0.5 WSW | 253 1.8 0.00 0.00 39.6 49.7
11/28/21 - 0630 43.0 87 39.6 0.7 W | 279 1.3 0.00 0.00 41.7 49.7
11/28/21 - 0615 44.4 88 40.9 2.3 ENE | 69 3.7 0.00 0.00 43.7 49.7
11/28/21 - 0600 44.7 88 41.3 2.7 E | 80 4.4 0.00 0.00 44.2 49.7
11/28/21 - 0545 44.5 87 40.9 2.7 ENE | 69 3.9 0.00 0.00 44.2 49.7
11/28/21 - 0530 45.1 86 41.3 2.2 ENE | 67 3.3 0.00 0.00 44.9 49.7
11/28/21 - 0515 45.6 85 41.5 2.8 ENE | 78 4.6 0.00 0.00 45.2 49.7
11/28/21 - 0500 45.8 86 41.8 3.1 E | 92 6.1 0.00 0.00 45.4 49.7
11/28/21 - 0445 45.7 86 41.7 2.7 E | 91 4.6 0.00 0.00 45.4 49.7
11/28/21 - 0430 45.9 86 41.9 3.9 E | 89 6.1 0.00 0.00 45.6 49.7
11/28/21 - 0415 46.0 85 41.8 4.3 E | 82 5.9 0.00 0.00 45.6 49.7
11/28/21 - 0400 46.2 84 41.7 3.7 E | 81 5.7 0.00 0.00 45.7 49.7
11/28/21 - 0345 46.4 84 41.7 3.5 E | 82 5.0 0.00 0.00 46.2 49.7
11/28/21 - 0330 47.5 81 41.9 2.8 E | 85 4.2 0.00 0.00 46.5 49.7
11/28/21 - 0315 48.0 81 42.4 2.7 ESE | 114 5.0 0.00 0.00 47.5 49.7
11/28/21 - 0300 47.8 81 42.2 3.2 ESE | 104 5.0 0.00 0.00 47.5 49.7
11/28/21 - 0245 47.9 80 42.2 2.8 ESE | 115 4.4 0.00 0.00 47.6 49.7
11/28/21 - 0230 47.8 81 42.1 2.8 ESE | 115 5.7 0.00 0.00 47.6 49.7
11/28/21 - 0215 48.2 80 42.3 1.8 ESE | 108 3.5 0.00 0.00 47.7 49.7
11/28/21 - 0200 48.9 79 42.6 1.6 SE | 137 3.7 0.00 0.00 47.7 49.7
11/28/21 - 0145 49.0 79 42.7 2.3 SE | 124 4.6 0.00 0.00 47.7 49.7
11/28/21 - 0130 49.1 79 42.8 3.0 ESE | 116 5.5 0.00 0.00 47.7 49.7
11/28/21 - 0115 49.3 78 42.8 2.2 ESE | 112 4.2 0.00 0.00 47.7 49.7
11/28/21 - 0100 49.5 78 43.1 2.6 ESE | 121 5.9 0.00 0.00 47.7 49.7
11/28/21 - 0045 48.8 80 43.1 2.9 ESE | 110 6.4 0.00 0.00 47.7 49.3
11/28/21 - 0030 48.0 83 43.1 2.3 ESE | 103 4.4 0.00 0.00 47.7 48.7
11/28/21 - 0015 48.2 82 43.1 3.2 E | 87 4.8 0.00 0.00 47.7 48.7
11/28/21 - 0000 48.3 83 43.3 2.8 E | 91 4.2 0.00 0.00 37.3 69.6
11/27/21 - 2345 48.5 83 43.5 2.9 E | 81 4.2 0.00 0.00 37.3 69.6
11/27/21 - 2330 48.7 83 43.7 3.3 E | 88 4.6 0.00 0.00 37.3 69.6
11/27/21 - 2315 48.9 84 44.2 3.1 E | 88 4.6 0.00 0.00 37.3 69.6
11/27/21 - 2300 48.8 85 44.6 2.8 E | 81 3.9 0.00 0.00 37.3 69.6
11/27/21 - 2245 48.2 91 45.8 3.0 E | 85 4.2 0.00 0.00 37.3 69.6
11/27/21 - 2230 45.1 95 43.7 2.5 E | 79 4.2 0.00 0.00 37.3 69.6
11/27/21 - 2215 43.8 94 42.3 1.7 ENE | 65 2.4 0.00 0.00 37.3 69.6
11/27/21 - 2200 43.3 94 41.6 0.2 W | 271 1.3 0.00 0.00 37.3 69.6
11/27/21 - 2145 42.4 92 40.4 0.0 N | 0 0.0 0.00 0.00 37.3 69.6
11/27/21 - 2130 43.0 92 40.8 0.0 N | 0 0.0 0.00 0.00 37.3 69.6
11/27/21 - 2115 43.4 92 41.2 0.0 N | 0 0.0 0.00 0.00 37.3 69.6
11/27/21 - 2100 44.0 91 41.7 0.0 W | 270 0.7 0.00 0.00 37.3 69.6
11/27/21 - 2045 44.5 92 42.2 0.0 W | 271 0.9 0.00 0.00 37.3 69.6
11/27/21 - 2030 43.9 90 41.1 0.0 W | 271 0.4 0.00 0.00 37.3 69.6
11/27/21 - 2015 44.6 89 41.6 0.5 W | 270 2.2 0.00 0.00 37.3 69.6
11/27/21 - 2000 45.0 88 41.7 0.0 N | 0 0.0 0.00 0.00 37.3 69.6
11/27/21 - 1945 45.9 87 42.3 0.1 W | 270 0.9 0.00 0.00 37.3 69.6
11/27/21 - 1930 46.9 87 43.3 0.1 W | 271 0.7 0.00 0.00 37.3 69.6
11/27/21 - 1915 47.1 87 43.5 0.0 N | 0 0.0 0.00 0.00 37.3 69.6
11/27/21 - 1900 47.8 86 43.8 0.0 N | 0 0.0 0.00 0.00 37.3 69.6
11/27/21 - 1845 48.2 85 43.8 0.0 N | 0 0.0 0.00 0.00 37.3 69.6
11/27/21 - 1830 48.8 82 43.5 0.0 N | 0 0.0 0.00 0.00 37.3 69.6
11/27/21 - 1815 49.8 78 43.3 0.1 W | 270 0.7 0.00 0.00 37.3 69.6
11/27/21 - 1800 51.0 77 44.1 0.3 NW | 316 1.3 0.00 0.00 37.3 69.6
11/27/21 - 1745 51.5 77 44.4 0.4 N | 356 2.4 0.00 0.00 37.3 69.6
Max 66.8 95 47.2 4.3 - 8.1 0.00 0.00 47.7 69.6
Avg 51.9 75 43.2 1.9 - 3.6 0.00 - - -
Min 38.7 45 36.2 0.0 - 0.0 0.00 0.00 37.3 48.7
Total - - - - - - 0.00 - - -

Last 7 Days

Modesto Jr College

Daily Data | America/Los_Angeles
as of 11/28/21 5:51 PM PST
Date Daily ETo (in)
11/27/21 0.055
11/26/21 0.057
11/25/21 0.050
11/24/21 0.076
11/23/21 0.056
11/22/21 0.057
11/21/21 0.058
Max 0.076
Min 0.050